LGSK Airport Information

Runway Information
Runway 02 Length 5341 ft width 98 ft
Elevation 9 ft Threshold 190 ft Heading 19
Runway 20 Length 5341 ft Width 98 ft
Elevation 54 ft Threshold 0 ft Heading 199
Airport Frequencies
Type A/G Name SKIATHOS R Frequency 563.7 MHZ
Type APP Name SKIATHOS A Frequency 126.05 MHZ
Type TWR Name SKIATHOS T Frequency 126.05 MHZ
Airport Navaids
Type NDB Name Skiathos Frequency 326 KHZ
Airport Weather Information & NOTAM
ADDS - METARS form results

(0306 UTC 17 September 2019)
Data provider http://aviationweather.gov/metar/data/
 
Forecast for: LGSK (SKIATHOS ISLAND , GR)
Text: TAF LGSK 170200Z 1703/1712 VRB05KT 9999 FEW020
Forecast period: 0300 to 1200 UTC 17 September 2019
Forecast type: FROM: standard forecast or significant change
Winds: variable direction winds at 6 MPH (5 knots; 2.6 m/s)
Visibility: 6 or more miles 10+ km)
Ceiling: at least 12,000 feet AGL
Clouds: few clouds at 2000 feet AGL
Weather: no significant weather forecast for this period